Time;durP1;ratioP1;P1;durP2;ratioP2;P2;SDS_P1;SDS_P2;PMS_P1;PMS_P2;Temp;Humidity;BMP_temperature;BMP_pressure;BME280_temperature;BME280_humidity;BME280_pressure;Samples;Min_cycle;Max_cycle;Signal;HPM_P1;HPM_P2
2023/03/29 00:00:01;;;;;;;5.87;3.53;;;5.10;99.90;;;;;;5016861;28;20220;-58
2023/03/29 00:02:29;;;;;;;6.30;3.87;;;5.20;99.90;;;;;;5003366;28;20232;-56
2023/03/29 00:05:00;;;;;;;7.83;3.83;;;5.10;99.90;;;;;;5010031;28;20725;-59
2023/03/29 00:07:32;;;;;;;8.13;4.00;;;5.10;99.90;;;;;;5007860;28;20197;-56
2023/03/29 00:10:00;;;;;;;5.70;3.93;;;5.00;99.90;;;;;;5011292;28;20204;-59
2023/03/29 00:12:29;;;;;;;4.67;3.47;;;5.00;99.90;;;;;;4988544;28;20652;-55
2023/03/29 00:14:56;;;;;;;6.83;3.80;;;4.90;99.90;;;;;;5017915;28;20209;-58
2023/03/29 00:17:23;;;;;;;6.97;4.33;;;4.90;99.90;;;;;;5006725;28;20192;-55
2023/03/29 00:19:50;;;;;;;6.10;3.73;;;5.00;99.90;;;;;;5018712;28;20203;-57
2023/03/29 00:22:17;;;;;;;6.53;4.10;;;4.90;99.90;;;;;;5021533;28;20297;-56
2023/03/29 00:24:47;;;;;;;8.20;3.60;;;5.00;99.90;;;;;;5011687;28;20193;-58
2023/03/29 00:27:15;;;;;;;5.40;3.67;;;4.90;99.90;;;;;;5010698;28;20250;-57
2023/03/29 00:29:42;;;;;;;7.00;4.03;;;4.90;99.90;;;;;;4997533;28;20200;-57
2023/03/29 00:32:09;;;;;;;5.10;3.47;;;4.90;99.90;;;;;;5016084;28;20208;-58
2023/03/29 00:34:36;;;;;;;5.53;3.20;;;4.90;99.90;;;;;;5001886;28;20191;-58
2023/03/29 00:37:06;;;;;;;5.47;3.50;;;4.90;99.90;;;;;;5009291;28;20741;-59
2023/03/29 00:39:33;;;;;;;8.23;3.00;;;4.90;99.90;;;;;;5001863;28;20312;-59
2023/03/29 00:42:02;;;;;;;7.13;2.57;;;4.90;99.90;;;;;;5006997;28;20223;-58
2023/03/29 00:44:58;;;;;;;9.30;3.00;;;4.90;99.90;;;;;;4995963;28;20211;-58
2023/03/29 00:47:30;;;;;;;4.63;3.17;;;4.90;99.90;;;;;;5013074;28;20208;-56
2023/03/29 00:50:00;;;;;;;6.83;3.10;;;4.90;99.90;;;;;;5002062;28;20197;-56
2023/03/29 00:52:30;;;;;;;7.80;3.47;;;4.90;99.90;;;;;;5009726;28;20297;-58
2023/03/29 00:55:01;;;;;;;6.90;3.30;;;4.90;99.90;;;;;;5010271;28;20201;-58
2023/03/29 00:57:32;;;;;;;3.23;2.93;;;4.90;99.90;;;;;;5010572;28;20540;-56
2023/03/29 01:00:01;;;;;;;6.23;2.90;;;4.90;99.90;;;;;;4995974;28;20208;-59
2023/03/29 01:02:33;;;;;;;6.80;2.87;;;4.90;99.90;;;;;;5007623;28;21017;-58
2023/03/29 01:05:07;;;;;;;5.70;3.17;;;4.90;99.90;;;;;;5007096;28;20204;-58
2023/03/29 01:07:41;;;;;;;6.23;3.00;;;4.90;99.90;;;;;;5001301;28;20197;-58
2023/03/29 01:10:12;;;;;;;8.30;3.37;;;4.90;99.90;;;;;;5011502;28;20663;-58
2023/03/29 01:12:46;;;;;;;4.90;2.77;;;4.90;99.90;;;;;;5005130;28;20195;-56
2023/03/29 01:15:17;;;;;;;6.20;2.90;;;4.90;99.90;;;;;;4984703;28;20234;-58
2023/03/29 01:17:49;;;;;;;5.33;3.60;;;4.90;99.90;;;;;;5022556;28;20988;-59
2023/03/29 01:20:21;;;;;;;4.43;3.60;;;4.90;99.90;;;;;;5015063;28;20579;-57
2023/03/29 01:23:12;;;;;;;6.83;3.70;;;4.90;99.90;;;;;;5051759;28;20234;-58
2023/03/29 01:25:46;;;;;;;5.23;3.77;;;4.90;99.90;;;;;;5016518;28;20274;-58
2023/03/29 01:28:18;;;;;;;4.43;3.07;;;4.90;99.90;;;;;;5005559;28;20221;-58
2023/03/29 01:30:49;;;;;;;5.63;3.60;;;4.90;99.90;;;;;;4997286;28;20204;-56
2023/03/29 01:33:20;;;;;;;6.93;3.67;;;4.80;99.90;;;;;;5029250;28;20225;-56
2023/03/29 01:35:52;;;;;;;4.13;3.33;;;4.80;99.90;;;;;;5007318;28;20212;-56
2023/03/29 01:38:23;;;;;;;8.40;4.13;;;4.90;99.90;;;;;;5011636;28;20217;-55
2023/03/29 01:40:50;;;;;;;7.33;3.80;;;4.90;99.90;;;;;;5005008;28;20215;-58
2023/03/29 01:43:24;;;;;;;5.40;3.57;;;4.90;99.90;;;;;;5015355;28;20225;-57
2023/03/29 01:46:00;;;;;;;4.70;3.40;;;4.90;99.90;;;;;;5011782;28;20269;-58
2023/03/29 01:48:31;;;;;;;4.60;3.73;;;4.90;99.90;;;;;;4994794;28;20315;-58
2023/03/29 01:51:05;;;;;;;5.57;3.40;;;4.90;99.90;;;;;;5021306;28;20203;-58
2023/03/29 01:53:38;;;;;;;5.70;3.37;;;4.90;99.90;;;;;;4995811;28;20306;-57
2023/03/29 01:56:11;;;;;;;3.33;3.03;;;4.80;99.90;;;;;;5013409;28;20277;-58
2023/03/29 01:58:43;;;;;;;7.60;3.30;;;4.80;99.90;;;;;;5011246;28;20212;-59
2023/03/29 02:01:16;;;;;;;5.33;3.43;;;4.80;99.90;;;;;;5012862;28;20207;-57
2023/03/29 02:03:48;;;;;;;3.93;3.10;;;4.70;99.90;;;;;;5000080;28;20198;-58
2023/03/29 02:06:19;;;;;;;6.40;3.30;;;4.70;99.90;;;;;;5010733;28;20204;-56
2023/03/29 02:08:47;;;;;;;6.43;3.00;;;4.70;99.90;;;;;;5012911;28;20220;-59
2023/03/29 02:11:14;;;;;;;5.87;3.10;;;4.60;99.90;;;;;;5017134;28;20200;-58
2023/03/29 02:13:42;;;;;;;5.27;3.03;;;4.60;99.90;;;;;;5010596;28;20185;-58
2023/03/29 02:16:11;;;;;;;5.67;2.87;;;4.60;99.90;;;;;;5010323;28;20856;-58
2023/03/29 02:18:39;;;;;;;6.67;3.20;;;4.60;99.90;;;;;;4995597;28;20942;-58
2023/03/29 02:21:08;;;;;;;4.53;3.00;;;4.50;99.90;;;;;;5017383;28;20200;-56
2023/03/29 02:23:39;;;;;;;7.77;3.80;;;4.50;99.90;;;;;;5006861;28;20216;-58
2023/03/29 02:26:29;;;;;;;6.07;3.67;;;4.50;99.90;;;;;;5000809;28;20316;-57
2023/03/29 02:28:58;;;;;;;7.17;3.03;;;4.50;99.90;;;;;;5045361;28;20220;-58
2023/03/29 02:31:29;;;;;;;5.50;3.20;;;4.40;99.90;;;;;;5009291;28;20219;-58
2023/03/29 02:34:01;;;;;;;8.73;3.10;;;4.40;99.90;;;;;;4996718;28;20220;-59
2023/03/29 02:36:34;;;;;;;5.90;3.70;;;4.30;99.90;;;;;;5025572;28;20204;-57
2023/03/29 02:39:04;;;;;;;4.53;3.07;;;4.20;99.90;;;;;;4997134;28;20239;-56
2023/03/29 02:41:32;;;;;;;9.03;4.07;;;4.20;99.90;;;;;;5009124;28;20915;-59
2023/03/29 02:44:02;;;;;;;5.77;2.90;;;4.20;99.90;;;;;;5008496;28;20298;-58
2023/03/29 02:46:30;;;;;;;5.37;3.40;;;4.20;99.90;;;;;;5014517;28;20901;-57
2023/03/29 02:48:58;;;;;;;4.00;3.00;;;4.10;99.90;;;;;;4992021;28;20228;-59
2023/03/29 02:51:28;;;;;;;3.67;3.03;;;4.20;99.90;;;;;;5010499;28;20208;-57
2023/03/29 02:53:59;;;;;;;3.60;3.13;;;4.20;99.90;;;;;;5011266;28;20219;-57
2023/03/29 02:56:26;;;;;;;5.90;3.30;;;4.20;99.90;;;;;;5022521;28;20208;-58
2023/03/29 02:58:53;;;;;;;4.47;2.93;;;4.10;99.90;;;;;;5018302;28;20358;-58
2023/03/29 03:01:21;;;;;;;4.73;2.70;;;4.10;99.90;;;;;;4998314;28;20255;-57
2023/03/29 03:03:50;;;;;;;5.17;2.40;;;4.10;99.90;;;;;;5010438;28;20215;-59
2023/03/29 03:06:17;;;;;;;4.87;2.80;;;4.10;99.90;;;;;;4995165;28;20294;-57
2023/03/29 03:08:45;;;;;;;6.43;3.07;;;4.20;99.90;;;;;;5009604;28;21092;-56
2023/03/29 03:11:12;;;;;;;6.63;2.80;;;4.20;99.90;;;;;;5010015;28;20597;-55
2023/03/29 03:13:39;;;;;;;6.30;3.10;;;4.20;99.90;;;;;;5011844;28;20212;-56
2023/03/29 03:16:08;;;;;;;5.50;3.10;;;4.20;99.90;;;;;;5011114;28;20219;-57
2023/03/29 03:18:37;;;;;;;6.87;2.60;;;4.20;99.90;;;;;;5013224;28;21022;-59
2023/03/29 03:21:04;;;;;;;3.60;2.70;;;4.20;99.90;;;;;;5004372;28;20215;-57
2023/03/29 03:23:31;;;;;;;4.67;2.30;;;4.10;99.90;;;;;;5007311;28;20915;-58
2023/03/29 03:25:58;;;;;;;2.93;2.27;;;4.10;99.90;;;;;;5002886;28;20204;-58
2023/03/29 03:28:26;;;;;;;9.50;2.87;;;4.20;99.90;;;;;;5010334;28;20235;-59
2023/03/29 03:30:53;;;;;;;5.30;2.73;;;4.10;99.90;;;;;;5006338;28;20689;-59
2023/03/29 03:33:22;;;;;;;5.13;2.03;;;4.20;99.90;;;;;;5016603;28;20960;-56
2023/03/29 03:36:28;;;;;;;6.20;2.33;;;4.20;99.90;;;;;;5002674;28;20211;-58
2023/03/29 03:38:56;;;;;;;4.10;2.20;;;4.20;99.90;;;;;;5031618;28;20227;-57
2023/03/29 03:41:24;;;;;;;5.93;2.13;;;4.10;99.90;;;;;;5003291;28;20196;-59
2023/03/29 03:43:51;;;;;;;7.10;2.53;;;4.10;99.90;;;;;;5016805;28;20306;-58
2023/03/29 03:46:19;;;;;;;4.33;2.30;;;4.10;99.90;;;;;;5009988;28;20216;-59
2023/03/29 03:48:47;;;;;;;10.53;2.40;;;4.10;99.90;;;;;;5017542;28;20219;-58
2023/03/29 03:51:31;;;;;;;4.87;2.57;;;4.10;99.90;;;;;;4989462;28;20331;-59
2023/03/29 03:53:58;;;;;;;4.47;2.50;;;4.10;99.90;;;;;;5017270;28;20207;-56
2023/03/29 03:56:36;;;;;;;4.80;2.53;;;4.10;99.90;;;;;;5013737;28;20257;-58
2023/03/29 03:59:12;;;;;;;4.53;2.70;;;4.10;99.90;;;;;;4999988;28;20220;-57
2023/03/29 04:01:51;;;;;;;4.83;2.40;;;4.10;99.90;;;;;;5017268;28;20215;-58
2023/03/29 04:04:22;;;;;;;6.30;2.03;;;4.10;99.90;;;;;;5002567;28;20242;-57
2023/03/29 04:07:01;;;;;;;4.77;2.97;;;4.10;99.90;;;;;;5017560;28;20202;-53
2023/03/29 04:10:01;;;;;;;8.67;2.33;;;4.00;99.90;;;;;;5002394;28;20199;-56
2023/03/29 04:12:44;;;;;;;5.87;2.30;;;4.00;99.90;;;;;;5004627;28;20611;-59
2023/03/29 04:15:11;;;;;;;5.80;2.10;;;4.10;99.90;;;;;;5002374;28;20199;-55
2023/03/29 04:17:42;;;;;;;5.47;2.73;;;4.00;99.90;;;;;;5015534;28;20216;-56
2023/03/29 04:20:18;;;;;;;2.63;2.23;;;4.10;99.90;;;;;;5008464;28;20194;-58
2023/03/29 04:22:47;;;;;;;5.03;2.27;;;4.00;99.90;;;;;;5000158;28;20221;-58
2023/03/29 04:25:14;;;;;;;7.57;3.17;;;4.10;99.90;;;;;;5010187;28;20230;-58
2023/03/29 04:28:01;;;;;;;6.07;2.23;;;4.10;99.90;;;;;;5004843;28;20263;-57
2023/03/29 04:30:52;;;;;;;6.93;2.40;;;4.10;99.90;;;;;;5009368;28;20299;-57
2023/03/29 04:33:34;;;;;;;9.30;2.50;;;4.10;99.90;;;;;;5010081;28;20203;-59
2023/03/29 04:36:01;;;;;;;7.77;2.73;;;4.10;99.90;;;;;;5019661;28;20242;-56
2023/03/29 04:38:29;;;;;;;5.70;2.70;;;4.10;99.90;;;;;;4994715;28;20282;-57
2023/03/29 04:40:56;;;;;;;4.97;2.23;;;4.10;99.90;;;;;;5014103;28;20261;-56
2023/03/29 04:43:31;;;;;;;5.03;2.50;;;4.10;99.90;;;;;;5006128;28;20231;-55
2023/03/29 04:46:20;;;;;;;4.53;2.70;;;4.20;99.90;;;;;;5013453;28;20212;-58
2023/03/29 04:49:06;;;;;;;7.00;2.80;;;4.10;99.90;;;;;;5011765;28;20225;-58
2023/03/29 04:51:37;;;;;;;7.97;2.67;;;4.10;99.90;;;;;;5014169;28;20289;-55
2023/03/29 04:54:06;;;;;;;8.00;2.87;;;4.10;99.90;;;;;;4996835;28;20204;-56
2023/03/29 04:56:47;;;;;;;6.37;2.77;;;4.20;99.90;;;;;;5025680;28;20311;-59
2023/03/29 04:59:27;;;;;;;6.43;3.23;;;4.20;99.90;;;;;;5009894;28;20228;-59
2023/03/29 05:01:57;;;;;;;6.73;2.90;;;4.20;99.90;;;;;;5048515;28;20204;-58
2023/03/29 05:04:24;;;;;;;3.70;3.10;;;4.20;99.90;;;;;;5012152;28;20227;-59
2023/03/29 05:07:03;;;;;;;6.50;3.40;;;4.20;99.90;;;;;;5016605;28;20207;-56
2023/03/29 05:09:31;;;;;;;3.57;3.27;;;4.20;99.90;;;;;;5000932;28;20920;-58
2023/03/29 05:12:00;;;;;;;5.67;3.10;;;4.20;99.90;;;;;;5003121;28;20196;-58
2023/03/29 05:14:29;;;;;;;8.43;3.73;;;4.20;99.90;;;;;;5015158;28;20207;-58
2023/03/29 05:16:57;;;;;;;4.53;3.00;;;4.30;99.90;;;;;;5003826;28;20295;-59
2023/03/29 05:19:26;;;;;;;7.83;3.20;;;4.30;99.90;;;;;;5021745;28;20243;-58
2023/03/29 05:21:53;;;;;;;8.57;3.73;;;4.30;99.90;;;;;;5015998;28;20874;-58
2023/03/29 05:24:23;;;;;;;7.70;3.20;;;4.30;99.90;;;;;;5000668;28;20855;-59
2023/03/29 05:26:57;;;;;;;7.30;3.27;;;4.30;99.90;;;;;;5008358;28;20208;-59
2023/03/29 05:29:25;;;;;;;4.63;3.60;;;4.30;99.90;;;;;;5017963;28;20770;-58
2023/03/29 05:32:00;;;;;;;11.80;3.73;;;4.30;99.90;;;;;;5005240;28;21307;-57
2023/03/29 05:34:27;;;;;;;8.27;3.50;;;4.30;99.90;;;;;;5013506;28;20210;-56
2023/03/29 05:37:00;;;;;;;5.43;3.27;;;4.30;99.90;;;;;;5022106;28;20194;-59
2023/03/29 05:39:32;;;;;;;5.47;3.93;;;4.30;99.90;;;;;;4988305;28;20219;-59
2023/03/29 05:42:00;;;;;;;6.03;3.60;;;4.30;99.90;;;;;;5012313;28;20211;-59
2023/03/29 05:44:31;;;;;;;5.60;3.50;;;4.30;99.90;;;;;;5049719;28;20247;-58
2023/03/29 05:47:07;;;;;;;7.53;3.37;;;4.30;99.90;;;;;;5004537;28;20217;-58
2023/03/29 05:49:36;;;;;;;5.60;3.30;;;4.30;99.90;;;;;;5015833;28;20224;-58
2023/03/29 05:52:11;;;;;;;6.27;2.90;;;4.30;99.90;;;;;;5016301;28;20199;-59
2023/03/29 05:54:40;;;;;;;5.20;3.43;;;4.30;99.90;;;;;;5000914;28;20200;-58
2023/03/29 05:57:08;;;;;;;8.47;4.33;;;4.40;99.90;;;;;;5012830;28;20274;-58
2023/03/29 05:59:37;;;;;;;4.20;3.80;;;4.40;99.90;;;;;;5017582;28;20875;-58
2023/03/29 06:02:04;;;;;;;4.63;4.20;;;4.40;99.90;;;;;;5006299;28;20207;-58
2023/03/29 06:04:36;;;;;;;6.67;4.13;;;4.40;99.90;;;;;;5007278;28;20212;-58
2023/03/29 06:07:22;;;;;;;12.27;4.27;;;4.40;99.90;;;;;;5021456;28;20590;-57
2023/03/29 06:10:16;;;;;;;7.10;4.17;;;4.50;99.90;;;;;;5002088;28;20523;-56
2023/03/29 06:12:50;;;;;;;7.37;4.93;;;4.50;99.90;;;;;;5015829;28;20202;-57
2023/03/29 06:15:22;;;;;;;6.17;4.50;;;4.50;99.90;;;;;;5010420;28;20760;-56
2023/03/29 06:17:52;;;;;;;7.50;4.50;;;4.60;99.90;;;;;;5000070;28;20918;-59
2023/03/29 06:20:20;;;;;;;5.70;4.70;;;4.60;99.90;;;;;;5056461;28;20226;-59
2023/03/29 06:22:54;;;;;;;5.93;4.37;;;4.70;99.90;;;;;;5035911;28;20950;-58
2023/03/29 06:25:23;;;;;;;9.33;4.63;;;4.70;99.90;;;;;;5015981;28;20283;-58
2023/03/29 06:27:52;;;;;;;6.13;4.63;;;4.70;99.90;;;;;;4985344;28;20251;-59
2023/03/29 06:30:20;;;;;;;7.40;5.37;;;4.80;99.90;;;;;;5014607;28;20208;-58
2023/03/29 06:32:51;;;;;;;6.83;4.77;;;4.80;99.90;;;;;;5001176;28;20216;-57
2023/03/29 06:35:34;;;;;;;12.80;6.43;;;4.90;99.90;;;;;;5042415;28;20203;-57
2023/03/29 06:38:06;;;;;;;8.27;5.77;;;4.90;99.90;;;;;;5016740;28;20927;-57
2023/03/29 06:41:01;;;;;;;11.83;5.60;;;5.00;99.90;;;;;;5012124;28;20274;-57
2023/03/29 06:43:35;;;;;;;10.80;5.93;;;5.00;99.90;;;;;;5014223;28;20220;-58
2023/03/29 06:46:24;;;;;;;10.10;6.90;;;5.10;99.90;;;;;;5012380;28;20293;-58
2023/03/29 06:49:13;;;;;;;11.67;6.47;;;5.20;99.90;;;;;;5002372;28;20243;-57
2023/03/29 06:51:56;;;;;;;8.67;6.33;;;5.20;99.90;;;;;;5009034;28;20231;-58
2023/03/29 06:54:24;;;;;;;10.63;6.40;;;5.30;99.90;;;;;;5005462;28;20195;-59
2023/03/29 06:56:59;;;;;;;11.33;6.40;;;5.40;99.90;;;;;;5008209;28;20272;-58
2023/03/29 06:59:50;;;;;;;9.80;6.50;;;5.40;99.90;;;;;;5016648;28;20218;-59
2023/03/29 07:02:22;;;;;;;6.97;6.27;;;5.50;99.90;;;;;;4993386;28;20200;-56
2023/03/29 07:04:59;;;;;;;11.37;7.00;;;5.50;99.90;;;;;;4993372;28;20236;-58
2023/03/29 07:07:42;;;;;;;11.67;7.13;;;5.60;99.90;;;;;;5010308;28;20223;-54
2023/03/29 07:10:24;;;;;;;10.67;6.30;;;5.70;99.90;;;;;;5034260;28;20274;-55
2023/03/29 07:13:12;;;;;;;10.20;6.70;;;5.70;99.90;;;;;;4992637;28;20367;-57
2023/03/29 07:15:41;;;;;;;12.27;7.13;;;5.80;99.90;;;;;;5002148;28;20839;-56
2023/03/29 07:18:18;;;;;;;13.53;6.50;;;5.80;99.90;;;;;;5008125;28;20211;-56
2023/03/29 07:20:46;;;;;;;8.10;6.00;;;5.80;99.90;;;;;;5012422;28;20226;-56
2023/03/29 07:23:13;;;;;;;9.13;6.50;;;5.90;99.90;;;;;;5014055;28;20922;-58
2023/03/29 07:25:40;;;;;;;8.30;6.90;;;5.90;99.90;;;;;;5017947;28;20200;-59
2023/03/29 07:28:08;;;;;;;11.50;6.50;;;6.00;99.90;;;;;;4991757;28;20235;-59
2023/03/29 07:30:36;;;;;;;11.10;6.03;;;6.10;99.90;;;;;;5021490;28;20204;-56
2023/03/29 07:33:12;;;;;;;8.50;6.40;;;6.20;99.90;;;;;;5009357;28;20208;-57
2023/03/29 07:35:46;;;;;;;10.80;6.23;;;6.20;99.90;;;;;;5007450;28;20222;-57
2023/03/29 07:38:14;;;;;;;10.07;6.10;;;6.20;99.90;;;;;;5012962;28;20296;-58
2023/03/29 07:40:46;;;;;;;11.13;6.73;;;6.30;99.90;;;;;;5013750;28;20233;-56
2023/03/29 07:43:33;;;;;;;11.70;5.83;;;6.30;99.90;;;;;;4999257;28;20299;-56
2023/03/29 07:46:01;;;;;;;7.67;5.63;;;6.40;99.90;;;;;;5018357;28;20203;-59
2023/03/29 07:48:31;;;;;;;9.67;6.20;;;6.50;99.90;;;;;;5035834;28;20243;-56
2023/03/29 07:51:03;;;;;;;7.40;5.23;;;6.50;99.90;;;;;;4992691;28;20196;-58
2023/03/29 07:53:38;;;;;;;6.07;4.57;;;6.60;99.90;;;;;;5015079;28;20732;-58
2023/03/29 07:56:20;;;;;;;7.03;4.77;;;6.60;99.90;;;;;;5011136;28;20223;-57
2023/03/29 07:58:51;;;;;;;11.33;5.57;;;6.70;99.90;;;;;;4995916;28;20235;-53
2023/03/29 08:01:19;;;;;;;4.80;4.40;;;6.70;99.90;;;;;;5010725;28;20205;-53
2023/03/29 08:04:05;;;;;;;6.63;4.33;;;6.80;99.90;;;;;;5002568;28;20298;-57
2023/03/29 08:06:55;;;;;;;6.33;4.27;;;6.80;99.90;;;;;;5001226;28;20571;-59
2023/03/29 08:09:28;;;;;;;7.70;4.57;;;6.80;99.90;;;;;;5011821;28;20231;-55
2023/03/29 08:11:56;;;;;;;8.90;5.13;;;6.90;99.90;;;;;;5006461;28;20223;-58
2023/03/29 08:14:28;;;;;;;4.23;3.83;;;6.90;99.90;;;;;;4992480;28;20204;-59
2023/03/29 08:17:03;;;;;;;6.97;4.47;;;6.90;99.90;;;;;;5002775;28;20196;-58
2023/03/29 08:19:34;;;;;;;5.07;4.10;;;6.90;99.90;;;;;;5038925;28;20266;-58
2023/03/29 08:22:05;;;;;;;6.50;3.90;;;7.00;99.90;;;;;;4999479;28;20204;-55
2023/03/29 08:25:07;;;;;;;9.50;5.13;;;7.00;99.90;;;;;;5011923;28;21027;-57
2023/03/29 08:27:39;;;;;;;4.83;4.33;;;7.00;99.90;;;;;;5008661;28;20227;-56
2023/03/29 08:30:09;;;;;;;5.57;4.07;;;7.00;99.90;;;;;;4999753;28;20303;-57
2023/03/29 08:32:38;;;;;;;11.77;6.07;;;7.10;99.90;;;;;;5022535;28;20603;-57
2023/03/29 08:35:09;;;;;;;8.97;4.67;;;7.10;99.90;;;;;;4999325;28;20188;-56
2023/03/29 08:37:56;;;;;;;7.77;3.97;;;7.20;99.90;;;;;;5002801;28;20361;-57
2023/03/29 08:40:26;;;;;;;5.70;4.17;;;7.30;99.90;;;;;;5018607;28;20203;-57
2023/03/29 08:43:30;;;;;;;5.00;4.40;;;7.30;99.90;;;;;;5009038;28;20196;-56
2023/03/29 08:46:25;;;;;;;6.03;3.90;;;7.30;99.90;;;;;;5000937;28;20359;-58
2023/03/29 08:48:55;;;;;;;3.73;3.43;;;7.30;99.90;;;;;;5013099;28;20248;-60
2023/03/29 08:51:30;;;;;;;4.47;4.07;;;7.40;99.90;;;;;;5002007;28;20197;-57
2023/03/29 08:54:02;;;;;;;6.23;3.87;;;7.50;99.90;;;;;;4996781;28;20203;-59
2023/03/29 08:56:54;;;;;;;8.47;4.40;;;7.50;99.90;;;;;;5017596;28;20207;-57
2023/03/29 08:59:29;;;;;;;5.53;4.03;;;7.60;99.90;;;;;;5017158;28;20216;-55
2023/03/29 09:01:58;;;;;;;7.20;4.57;;;7.60;99.90;;;;;;4996513;28;20204;-56
2023/03/29 09:04:28;;;;;;;5.60;3.90;;;7.60;99.90;;;;;;5022615;28;20306;-56
2023/03/29 09:07:08;;;;;;;5.67;3.93;;;7.60;99.90;;;;;;5014346;28;20195;-59
2023/03/29 09:09:42;;;;;;;5.57;3.73;;;7.60;99.90;;;;;;5012199;28;20334;-57
2023/03/29 09:12:38;;;;;;;5.87;3.77;;;7.60;99.90;;;;;;5018114;28;20658;-57
2023/03/29 09:15:14;;;;;;;5.40;4.20;;;7.70;99.90;;;;;;4985310;28;21989;-59
2023/03/29 09:17:58;;;;;;;8.20;4.60;;;7.70;99.90;;;;;;5016070;28;20287;-57
2023/03/29 09:20:38;;;;;;;9.70;5.40;;;7.80;99.90;;;;;;5009976;28;20289;-58
2023/03/29 09:23:42;;;;;;;6.03;4.00;;;7.80;99.90;;;;;;5037598;28;20255;-58
2023/03/29 09:26:27;;;;;;;6.23;4.40;;;7.80;99.90;;;;;;5008410;28;20501;-58
2023/03/29 09:29:17;;;;;;;7.73;4.63;;;7.90;99.90;;;;;;5011693;28;20931;-58
2023/03/29 09:31:45;;;;;;;4.37;3.97;;;7.90;99.90;;;;;;5000916;28;20587;-56
2023/03/29 09:34:15;;;;;;;6.53;4.43;;;8.00;99.90;;;;;;5010924;28;20200;-57
2023/03/29 09:36:54;;;;;;;7.00;4.37;;;8.00;99.90;;;;;;5011339;28;20234;-57
2023/03/29 09:39:26;;;;;;;5.00;4.50;;;8.00;99.90;;;;;;4999140;28;20219;-58
2023/03/29 09:42:03;;;;;;;5.10;4.07;;;8.00;99.90;;;;;;5038431;28;20200;-57
2023/03/29 09:44:35;;;;;;;4.90;3.93;;;7.90;99.90;;;;;;5019628;28;20247;-57
2023/03/29 09:47:09;;;;;;;6.67;4.70;;;8.00;99.90;;;;;;4992665;28;20227;-58
2023/03/29 09:49:41;;;;;;;5.43;4.47;;;8.00;99.90;;;;;;5018465;28;20313;-57
2023/03/29 09:52:12;;;;;;;6.13;5.03;;;8.00;99.90;;;;;;5004167;28;21306;-57
2023/03/29 09:54:44;;;;;;;7.93;4.50;;;8.00;99.90;;;;;;5034523;28;20219;-57
2023/03/29 09:57:32;;;;;;;6.90;4.63;;;8.00;99.90;;;;;;5019629;28;20220;-57
2023/03/29 10:00:04;;;;;;;7.33;3.93;;;8.10;99.90;;;;;;5016859;28;20208;-57
2023/03/29 10:02:40;;;;;;;6.93;5.30;;;8.20;99.90;;;;;;5014114;28;20207;-58
2023/03/29 10:05:16;;;;;;;6.83;4.30;;;8.30;99.90;;;;;;4998193;28;20214;-58
2023/03/29 10:07:48;;;;;;;6.30;4.03;;;8.40;99.90;;;;;;5019770;28;20220;-57
2023/03/29 10:10:22;;;;;;;5.27;4.00;;;8.40;99.90;;;;;;5000449;28;20212;-57
2023/03/29 10:12:52;;;;;;;7.13;4.10;;;8.50;99.90;;;;;;5014487;28;20670;-56
2023/03/29 10:15:20;;;;;;;4.67;3.77;;;8.50;99.90;;;;;;5016275;28;20230;-59
2023/03/29 10:17:47;;;;;;;5.63;4.53;;;8.50;99.90;;;;;;5005878;28;20216;-57
2023/03/29 10:20:17;;;;;;;6.77;4.20;;;8.60;99.90;;;;;;4999845;28;20459;-59
2023/03/29 10:22:48;;;;;;;5.77;4.67;;;8.70;99.90;;;;;;5021388;28;20196;-56
2023/03/29 10:25:17;;;;;;;4.60;3.60;;;8.70;99.90;;;;;;5008576;28;20220;-58
2023/03/29 10:27:47;;;;;;;6.27;4.03;;;8.60;99.90;;;;;;5000325;28;20228;-58
2023/03/29 10:30:21;;;;;;;8.40;4.23;;;8.60;99.90;;;;;;5015704;28;20192;-59
2023/03/29 10:32:55;;;;;;;9.50;4.80;;;8.60;99.90;;;;;;5015169;28;20204;-58
2023/03/29 10:35:24;;;;;;;4.93;4.33;;;8.60;99.90;;;;;;4995348;28;20211;-54
2023/03/29 10:37:56;;;;;;;6.30;4.33;;;8.70;99.90;;;;;;5007813;28;20220;-58
2023/03/29 10:40:28;;;;;;;6.97;4.57;;;8.80;99.90;;;;;;5008966;28;20679;-57
2023/03/29 10:43:00;;;;;;;7.83;5.07;;;8.90;99.90;;;;;;5001089;28;20200;-59
2023/03/29 10:45:30;;;;;;;8.17;5.57;;;8.90;99.90;;;;;;5007427;28;21395;-56
2023/03/29 10:47:57;;;;;;;7.93;5.07;;;8.90;99.90;;;;;;5006531;28;20219;-53
2023/03/29 10:50:31;;;;;;;5.87;5.07;;;8.90;99.90;;;;;;4981902;28;20741;-60
2023/03/29 10:52:58;;;;;;;5.97;5.20;;;9.00;99.90;;;;;;5001972;28;20307;-60
2023/03/29 10:55:33;;;;;;;6.43;5.00;;;9.00;99.90;;;;;;5017481;28;20959;-57
2023/03/29 10:58:14;;;;;;;6.83;5.23;;;9.10;99.90;;;;;;5003775;28;20222;-58
2023/03/29 11:00:48;;;;;;;6.10;4.73;;;9.10;99.90;;;;;;5015363;28;20200;-52
2023/03/29 11:03:38;;;;;;;9.23;5.60;;;9.00;99.90;;;;;;5006193;28;20200;-53
2023/03/29 11:06:14;;;;;;;7.17;5.20;;;9.00;99.90;;;;;;4977133;28;20232;-55
2023/03/29 11:08:51;;;;;;;7.10;5.10;;;9.00;99.90;;;;;;5010170;28;20278;-54
2023/03/29 11:11:42;;;;;;;8.97;5.40;;;9.10;99.90;;;;;;5017239;28;20196;-61
2023/03/29 11:14:16;;;;;;;7.13;4.77;;;9.20;99.90;;;;;;5001816;28;20201;-56
2023/03/29 11:16:51;;;;;;;7.43;5.40;;;9.30;99.90;;;;;;5015983;28;20183;-53
2023/03/29 11:19:50;;;;;;;5.90;5.07;;;9.40;99.90;;;;;;5015897;28;20231;-59
2023/03/29 11:22:24;;;;;;;7.70;5.83;;;9.40;99.90;;;;;;4995975;28;20565;-60
2023/03/29 11:25:06;;;;;;;7.70;4.87;;;9.30;99.90;;;;;;5014113;28;20238;-53
2023/03/29 11:27:41;;;;;;;4.90;4.40;;;9.20;99.90;;;;;;4998161;28;20333;-57
2023/03/29 11:30:16;;;;;;;13.13;7.67;;;9.20;99.90;;;;;;5020451;28;20214;-55
2023/03/29 11:32:56;;;;;;;14.10;7.73;;;9.20;99.90;;;;;;5021910;28;20273;-57
2023/03/29 11:35:34;;;;;;;15.80;8.43;;;9.20;99.90;;;;;;5019574;28;20204;-59
2023/03/29 11:38:10;;;;;;;10.33;7.23;;;9.20;99.90;;;;;;5005940;28;20677;-59
2023/03/29 11:40:50;;;;;;;14.37;7.77;;;9.10;99.90;;;;;;5003635;28;21016;-55
2023/03/29 11:43:23;;;;;;;12.23;7.87;;;9.10;99.90;;;;;;5006397;28;20265;-58
2023/03/29 11:45:55;;;;;;;8.13;5.40;;;9.00;99.90;;;;;;5022254;28;20314;-52
2023/03/29 11:48:25;;;;;;;8.17;5.90;;;9.00;99.90;;;;;;5015389;28;20243;-59
2023/03/29 11:50:58;;;;;;;9.20;5.87;;;8.90;99.90;;;;;;5015661;28;20200;-56
2023/03/29 11:53:30;;;;;;;8.33;6.50;;;8.90;99.90;;;;;;4997112;28;20616;-58
2023/03/29 11:56:06;;;;;;;11.20;6.43;;;8.90;99.90;;;;;;5016200;28;20203;-58
2023/03/29 11:58:36;;;;;;;12.47;6.20;;;8.80;99.90;;;;;;5006935;28;21002;-55
2023/03/29 12:01:10;;;;;;;11.87;7.10;;;8.70;99.90;;;;;;5019568;28;20223;-56
2023/03/29 12:03:42;;;;;;;7.87;6.30;;;8.70;99.90;;;;;;5010591;28;21369;-54
2023/03/29 12:06:16;;;;;;;10.33;6.43;;;8.60;99.90;;;;;;5020746;28;20239;-55
2023/03/29 12:08:47;;;;;;;8.50;6.13;;;8.70;99.90;;;;;;5006424;28;20273;-51
2023/03/29 12:11:22;;;;;;;11.27;7.03;;;8.70;99.90;;;;;;5010408;28;20201;-59
2023/03/29 12:13:53;;;;;;;9.20;6.53;;;8.80;99.90;;;;;;5013806;28;20206;-58
2023/03/29 12:16:29;;;;;;;10.60;7.97;;;8.80;99.90;;;;;;5010412;28;20246;-59
2023/03/29 12:18:59;;;;;;;8.77;6.80;;;8.80;99.90;;;;;;5021779;28;20738;-55
2023/03/29 12:21:29;;;;;;;10.10;7.53;;;8.90;99.90;;;;;;5024340;28;20203;-60
2023/03/29 12:23:57;;;;;;;10.27;6.87;;;8.90;99.90;;;;;;5036532;28;20257;-51
2023/03/29 12:26:35;;;;;;;7.80;7.00;;;9.00;99.90;;;;;;4999234;28;20223;-59
2023/03/29 12:29:25;;;;;;;8.20;6.53;;;9.00;99.90;;;;;;5013374;28;20227;-60
2023/03/29 12:32:04;;;;;;;10.67;7.33;;;9.10;99.90;;;;;;5016290;28;20578;-56
2023/03/29 12:34:56;;;;;;;11.77;7.20;;;9.10;99.90;;;;;;5015337;28;20680;-52
2023/03/29 12:37:48;;;;;;;9.60;6.90;;;9.20;99.90;;;;;;5018474;28;20975;-57
2023/03/29 12:40:41;;;;;;;6.60;5.97;;;9.20;99.90;;;;;;4998786;28;20238;-58
2023/03/29 12:43:30;;;;;;;8.80;7.00;;;9.20;99.90;;;;;;5019044;28;20210;-56
2023/03/29 12:46:17;;;;;;;14.43;8.00;;;9.30;99.90;;;;;;5009372;28;20313;-55
2023/03/29 12:48:49;;;;;;;9.57;7.37;;;9.40;99.90;;;;;;5018592;28;20218;-54
2023/03/29 12:51:18;;;;;;;8.93;7.40;;;9.40;99.90;;;;;;5013159;28;20753;-55
2023/03/29 12:53:47;;;;;;;13.30;8.93;;;9.40;99.90;;;;;;5023783;28;20827;-55
2023/03/29 12:56:15;;;;;;;11.23;7.03;;;9.50;99.90;;;;;;5002664;28;20208;-54
2023/03/29 12:58:54;;;;;;;10.57;7.37;;;9.60;99.90;;;;;;5015805;28;20311;-56
2023/03/29 13:01:27;;;;;;;8.77;7.47;;;9.60;99.90;;;;;;5011855;28;20283;-58
2023/03/29 13:04:13;;;;;;;8.50;7.57;;;9.60;99.90;;;;;;5021946;28;20275;-59
2023/03/29 13:07:01;;;;;;;7.87;7.07;;;9.70;99.90;;;;;;5015226;28;20218;-58
2023/03/29 13:09:34;;;;;;;11.10;8.47;;;9.70;99.90;;;;;;5013932;28;20205;-53
2023/03/29 13:12:06;;;;;;;9.90;7.53;;;9.70;99.90;;;;;;5000762;28;20690;-59
2023/03/29 13:14:36;;;;;;;9.20;7.70;;;9.70;99.90;;;;;;5017488;28;20291;-58
2023/03/29 13:17:04;;;;;;;8.63;7.00;;;9.80;99.90;;;;;;5013121;28;20200;-59
2023/03/29 13:19:38;;;;;;;7.63;6.93;;;9.80;99.90;;;;;;5023217;28;20212;-55
2023/03/29 13:22:17;;;;;;;8.80;6.47;;;9.80;99.90;;;;;;5026790;28;20199;-59
2023/03/29 13:25:04;;;;;;;12.03;7.60;;;9.80;99.90;;;;;;5021145;28;20679;-54
2023/03/29 13:27:41;;;;;;;10.73;7.60;;;9.90;99.90;;;;;;4998881;28;20211;-55
2023/03/29 13:30:23;;;;;;;9.57;7.50;;;10.00;99.90;;;;;;5020622;28;20655;-60